createdAt,value
2019-02-20T00:00:17.217Z,101543.23
2019-02-20T00:02:46.699Z,101539.06
2019-02-20T00:05:13.863Z,101544.62
2019-02-20T00:07:41.236Z,101546.05
2019-02-20T00:10:09.068Z,101562.73
2019-02-20T00:12:38.266Z,101554.66
2019-02-20T00:15:05.572Z,101557.79
2019-02-20T00:17:34.647Z,101565.55
2019-02-20T00:20:01.795Z,101554.97
2019-02-20T00:22:39.815Z,101562.37
2019-02-20T00:25:01.371Z,101547.84
2019-02-20T00:27:28.749Z,101574.91
2019-02-20T00:29:55.919Z,101556.94
2019-02-20T00:32:23.258Z,101537.91
2019-02-20T00:34:51.755Z,101571.02
2019-02-20T00:37:19.515Z,101568.23
2019-02-20T00:39:46.687Z,101567.31
2019-02-20T00:42:14.103Z,101573.52
2019-02-20T00:44:49.261Z,101573.53
2019-02-20T00:47:34.907Z,101569.37
2019-02-20T00:50:02.225Z,101570.87
2019-02-20T00:52:38.177Z,101576.01
2019-02-20T00:55:06.428Z,101581.12
2019-02-20T00:57:33.515Z,101589.68
2019-02-20T01:00:00.587Z,101593.80
2019-02-20T01:02:27.653Z,101602.47
2019-02-20T01:04:57.393Z,101594.84
2019-02-20T01:07:26.305Z,101605.19
2019-02-20T01:09:54.016Z,101606.25
2019-02-20T01:12:21.473Z,101606.13
2019-02-20T01:14:49.340Z,101603.37
2019-02-20T01:17:16.520Z,101601.66
2019-02-20T01:19:43.942Z,101590.83
2019-02-20T01:22:11.298Z,101603.00
2019-02-20T01:24:38.454Z,101595.45
2019-02-20T01:27:05.574Z,101608.86
2019-02-20T01:29:32.998Z,101613.61
2019-02-20T01:32:02.183Z,101608.23
2019-02-20T01:34:29.707Z,101615.18
2019-02-20T01:36:57.204Z,101615.78
2019-02-20T01:39:24.269Z,101602.58
2019-02-20T01:41:51.782Z,101614.19
2019-02-20T01:44:20.869Z,101610.45
2019-02-20T01:46:48.059Z,101618.73
2019-02-20T01:49:15.121Z,101616.27
2019-02-20T01:51:42.223Z,101623.94
2019-02-20T01:54:11.079Z,101625.09
2019-02-20T01:56:38.765Z,101604.98
2019-02-20T01:59:07.243Z,101602.41
2019-02-20T02:01:34.645Z,101610.14
2019-02-20T02:04:02.363Z,101606.45
2019-02-20T02:06:29.943Z,101615.06
2019-02-20T04:01:58.583Z,101643.56
2019-02-20T04:04:26.467Z,101646.36
2019-02-20T04:06:54.181Z,101634.20
2019-02-20T04:09:23.674Z,101635.16
2019-02-20T04:11:51.863Z,101636.92
2019-02-20T04:14:19.545Z,101629.56
2019-02-20T04:16:47.281Z,101643.60
2019-02-20T04:19:14.804Z,101637.83
2019-02-20T04:21:44.594Z,101644.65
2019-02-20T04:24:12.678Z,101648.13
2019-02-20T04:26:41.206Z,101653.59
2019-02-20T04:29:08.666Z,101655.02
2019-02-20T04:31:36.429Z,101658.81
2019-02-20T04:34:04.048Z,101658.28
2019-02-20T04:36:31.857Z,101660.09
2019-02-20T04:39:00.043Z,101660.80
2019-02-20T04:41:27.470Z,101654.37
2019-02-20T04:43:54.543Z,101657.01
2019-02-20T04:46:22.022Z,101659.67
2019-02-20T04:48:49.714Z,101662.35
2019-02-20T04:51:17.415Z,101671.47
2019-02-20T04:53:45.127Z,101676.95
2019-02-20T04:56:12.264Z,101674.48
2019-02-20T04:58:40.447Z,101672.97
2019-02-20T05:01:09.057Z,101677.97
2019-02-20T05:03:36.164Z,101663.17
2019-02-20T05:06:03.353Z,101650.21
2019-02-20T05:08:30.473Z,101656.36
2019-02-20T05:10:57.768Z,101655.39
2019-02-20T05:13:25.232Z,101661.58
2019-02-20T05:15:52.320Z,101665.95
2019-02-20T05:18:19.421Z,101663.87
2019-02-20T05:20:47.618Z,101673.41
2019-02-20T05:23:15.589Z,101667.72
2019-02-20T05:25:43.027Z,101668.43
2019-02-20T05:28:10.459Z,101665.67
2019-02-20T05:30:37.533Z,101675.98
2019-02-20T05:33:05.044Z,101669.92
2019-02-20T05:35:32.766Z,101668.80
2019-02-20T05:38:00.427Z,101676.95
2019-02-20T05:40:28.264Z,101667.91
2019-02-20T05:42:55.482Z,101675.27
2019-02-20T05:45:22.520Z,101681.23
2019-02-20T05:47:50.516Z,101676.11
2019-02-20T05:50:17.580Z,101676.14
2019-02-20T05:52:44.715Z,101685.17
2019-02-20T05:55:11.851Z,101673.41
2019-02-20T05:57:39.304Z,101684.37
2019-02-20T06:00:07.635Z,101685.75
2019-02-20T06:02:34.740Z,101681.73
2019-02-20T06:05:03.415Z,101684.77
2019-02-20T06:07:32.574Z,101682.66
2019-02-20T06:09:59.745Z,101677.97
2019-02-20T06:12:28.618Z,101691.41
2019-02-20T06:14:55.977Z,101693.98
2019-02-20T06:17:23.031Z,101695.20
2019-02-20T06:19:50.517Z,101709.26
2019-02-20T06:22:18.044Z,101702.44
2019-02-20T06:24:45.794Z,101707.95
2019-02-20T06:27:13.209Z,101709.45
2019-02-20T06:29:41.323Z,101723.48
2019-02-20T06:32:08.990Z,101717.98
2019-02-20T06:34:37.565Z,101718.61
2019-02-20T06:37:05.435Z,101715.08
2019-02-20T06:39:33.811Z,101711.87
2019-02-20T06:42:01.910Z,101720.94
2019-02-20T06:44:28.977Z,101723.27
2019-02-20T06:46:56.797Z,101733.92
2019-02-20T06:49:24.565Z,101729.97
2019-02-20T06:51:53.042Z,101730.64
2019-02-20T06:54:20.517Z,101734.64
2019-02-20T06:56:47.992Z,101732.78
2019-02-20T06:59:15.340Z,101743.16
2019-02-20T07:01:42.970Z,101746.92
2019-02-20T07:04:10.324Z,101750.52
2019-02-20T07:06:49.760Z,101757.62
2019-02-20T07:09:50.698Z,101760.11
2019-02-20T07:12:26.963Z,101758.42
2019-02-20T07:15:34.255Z,101762.08
2019-02-20T07:18:39.296Z,101767.56
2019-02-20T07:21:37.168Z,101768.47
2019-02-20T07:24:28.686Z,101771.21
2019-02-20T07:27:02.466Z,101774.27
2019-02-20T07:30:02.307Z,101777.30
2019-02-20T07:32:32.469Z,101774.34
2019-02-20T07:35:00.402Z,101776.75
2019-02-20T07:37:27.747Z,101775.78
2019-02-20T07:39:54.783Z,101780.59
2019-02-20T07:42:21.814Z,101785.23
2019-02-20T07:44:48.906Z,101788.05
2019-02-20T07:47:17.683Z,101793.44
2019-02-20T07:49:45.861Z,101799.92
2019-02-20T07:52:13.827Z,101794.33
2019-02-20T07:54:40.904Z,101790.31
2019-02-20T07:57:08.327Z,101789.92
2019-02-20T07:59:35.711Z,101796.28
2019-02-20T08:02:02.775Z,101806.67
2019-02-20T08:04:29.874Z,101806.95
2019-02-20T08:06:56.938Z,101806.14
2019-02-20T08:09:24.635Z,101811.16
2019-02-20T08:11:52.492Z,101806.22
2019-02-20T08:14:19.558Z,101807.97
2019-02-20T08:16:52.262Z,101814.91
2019-02-20T08:19:16.262Z,101817.34
2019-02-20T08:21:43.923Z,101815.17
2019-02-20T08:24:11.373Z,101818.53
2019-02-20T08:26:38.435Z,101829.05
2019-02-20T08:29:05.794Z,101826.34
2019-02-20T08:31:33.235Z,101839.50
2019-02-20T08:34:01.562Z,101843.74
2019-02-20T08:36:28.655Z,101836.16
2019-02-20T08:38:56.018Z,101841.72
2019-02-20T08:41:23.829Z,101844.64
2019-02-20T08:43:51.987Z,101846.41
2019-02-20T08:46:20.074Z,101853.27
2019-02-20T08:48:47.799Z,101850.66
2019-02-20T08:51:14.874Z,101847.87
2019-02-20T08:53:42.241Z,101846.44
2019-02-20T08:56:09.334Z,101857.09
2019-02-20T08:58:36.394Z,101851.89
2019-02-20T09:01:05.435Z,101855.76
2019-02-20T09:03:33.719Z,101857.09
2019-02-20T09:06:02.281Z,101864.37
2019-02-20T09:08:29.687Z,101856.44
2019-02-20T09:10:56.793Z,101866.64
2019-02-20T09:13:26.106Z,101869.07
2019-02-20T09:15:53.225Z,101870.20
2019-02-20T09:18:20.286Z,101873.00
2019-02-20T09:20:47.476Z,101881.77
2019-02-20T09:23:15.978Z,101882.34
2019-02-20T09:25:44.853Z,101879.72
2019-02-20T09:28:13.000Z,101882.89
2019-02-20T09:30:40.244Z,101885.51
2019-02-20T09:33:08.053Z,101890.73
2019-02-20T09:35:35.124Z,101889.97
2019-02-20T09:38:02.195Z,101890.56
2019-02-20T09:40:29.909Z,101895.02
2019-02-20T09:42:58.006Z,101890.33
2019-02-20T09:45:26.152Z,101894.30
2019-02-20T09:47:54.360Z,101898.59
2019-02-20T09:50:22.830Z,101900.44
2019-02-20T09:52:52.423Z,101899.22
2019-02-20T09:55:18.832Z,101902.88
2019-02-20T09:57:45.963Z,101908.39
2019-02-20T10:00:14.582Z,101905.08
2019-02-20T10:02:42.871Z,101899.48
2019-02-20T10:05:10.096Z,101915.19
2019-02-20T10:07:37.554Z,101921.37
2019-02-20T10:10:05.319Z,101922.78
2019-02-20T10:12:32.775Z,101931.77
2019-02-20T10:14:59.847Z,101932.93
2019-02-20T10:17:28.040Z,101931.30
2019-02-20T10:19:55.323Z,101934.14
2019-02-20T10:22:22.765Z,101937.33
2019-02-20T10:24:50.389Z,101932.47
2019-02-20T10:27:19.289Z,101939.47
2019-02-20T10:29:46.350Z,101948.37
2019-02-20T10:32:13.697Z,101940.25
2019-02-20T10:34:42.903Z,101940.53
2019-02-20T10:37:09.966Z,101947.17
2019-02-20T10:39:37.022Z,101955.59
2019-02-20T10:42:04.736Z,101951.02
2019-02-20T10:44:32.092Z,101956.23
2019-02-20T10:46:59.865Z,101954.28
2019-02-20T10:49:28.746Z,101959.52
2019-02-20T10:51:55.820Z,101960.62
2019-02-20T10:54:23.197Z,101961.02
2019-02-20T10:56:50.807Z,101967.55
2019-02-20T10:59:21.036Z,101972.21
2019-02-20T11:01:48.658Z,101964.64
2019-02-20T11:04:15.786Z,101961.20
2019-02-20T11:06:42.945Z,101967.63
2019-02-20T11:09:10.854Z,101964.95
2019-02-20T11:11:38.946Z,101966.63
2019-02-20T11:14:07.450Z,101985.97
2019-02-20T11:16:35.922Z,101984.20
2019-02-20T11:19:05.196Z,101978.94
2019-02-20T11:21:34.143Z,101979.25
2019-02-20T11:24:01.641Z,101976.35
2019-02-20T11:26:28.749Z,101973.23
2019-02-20T11:28:56.751Z,101975.41
2019-02-20T11:31:24.243Z,101980.80
2019-02-20T11:33:51.424Z,101982.23
2019-02-20T11:36:20.096Z,101977.84
2019-02-20T11:38:49.421Z,101982.20
2019-02-20T11:41:17.322Z,101982.97
2019-02-20T11:43:45.304Z,101988.02
2019-02-20T11:46:12.490Z,101988.02
2019-02-20T11:48:39.692Z,101979.88
2019-02-20T11:51:06.816Z,101987.73
2019-02-20T11:53:37.409Z,101989.20
2019-02-20T11:56:05.838Z,101983.68
2019-02-20T11:58:33.510Z,101982.86
2019-02-20T12:01:02.700Z,101983.92
2019-02-20T12:03:31.215Z,101989.14
2019-02-20T12:05:58.297Z,101988.48
2019-02-20T12:08:25.402Z,101987.58
2019-02-20T12:10:52.871Z,101996.16
2019-02-20T12:13:21.321Z,101986.91
2019-02-20T12:15:50.031Z,101990.20
2019-02-20T12:18:17.716Z,101989.99
2019-02-20T12:20:46.287Z,101995.20
2019-02-20T12:23:14.476Z,102000.58
2019-02-20T12:25:41.987Z,101997.45
2019-02-20T12:28:09.357Z,102002.38
2019-02-20T12:30:38.110Z,102001.02
2019-02-20T12:33:05.468Z,102000.66
2019-02-20T12:35:33.591Z,102002.48
2019-02-20T12:38:02.481Z,102002.28
2019-02-20T12:40:30.332Z,102012.47
2019-02-20T12:42:58.508Z,102009.98
2019-02-20T12:45:25.791Z,101997.74
2019-02-20T12:47:52.872Z,102009.97
2019-02-20T12:50:20.357Z,102009.06
2019-02-20T12:52:47.858Z,102012.97
2019-02-20T12:55:16.284Z,102015.78
2019-02-20T12:57:43.814Z,102017.91
2019-02-20T13:00:11.474Z,102011.65
2019-02-20T13:02:40.446Z,102016.15
2019-02-20T13:05:11.098Z,102012.23
2019-02-20T13:07:38.683Z,102016.14
2019-02-20T13:10:06.584Z,102007.17
2019-02-20T13:12:33.968Z,102027.47
2019-02-20T13:15:01.518Z,102018.84
2019-02-20T13:17:30.545Z,102022.98
2019-02-20T13:19:57.912Z,102015.61
2019-02-20T13:22:25.312Z,102016.51
2019-02-20T13:24:52.723Z,102025.22
2019-02-20T13:27:22.717Z,102017.81
2019-02-20T13:29:49.035Z,102026.59
2019-02-20T13:32:16.227Z,102011.88
2019-02-20T13:34:45.850Z,102014.83
2019-02-20T13:37:13.503Z,102020.26
2019-02-20T13:39:41.676Z,102034.17
2019-02-20T13:42:08.793Z,102017.17
2019-02-20T13:44:36.291Z,102025.09
2019-02-20T13:47:04.960Z,102019.96
2019-02-20T13:49:33.031Z,102017.56
2019-02-20T13:52:00.414Z,102017.84
2019-02-20T13:54:28.172Z,102016.04
2019-02-20T13:57:01.928Z,102022.70
2019-02-20T13:59:26.334Z,102021.52
2019-02-20T14:01:53.742Z,102011.51
2019-02-20T14:04:20.842Z,102014.86
2019-02-20T14:06:47.934Z,102003.28
2019-02-20T14:09:15.340Z,102001.20
2019-02-20T14:11:47.616Z,102001.20
2019-02-20T14:14:16.742Z,102010.37
2019-02-20T14:16:45.711Z,102006.37
2019-02-20T14:19:13.511Z,102016.52
2019-02-20T14:21:40.582Z,102016.52
2019-02-20T14:24:07.701Z,102012.61
2019-02-20T14:26:35.534Z,102020.27
2019-02-20T14:29:04.326Z,102016.91
2019-02-20T14:31:32.103Z,102009.33
2019-02-20T14:33:59.751Z,102006.34
2019-02-20T14:36:27.812Z,102001.20
2019-02-20T14:38:55.276Z,102000.84
2019-02-20T14:41:24.171Z,101997.08
2019-02-20T14:43:52.339Z,101998.05
2019-02-20T14:46:19.967Z,102002.78
2019-02-20T14:48:47.405Z,102002.47
2019-02-20T14:51:15.937Z,102004.09
2019-02-20T14:53:43.703Z,101998.12
2019-02-20T14:56:12.797Z,101998.88
2019-02-20T14:58:42.104Z,101998.88
2019-02-20T15:01:09.500Z,101998.18
2019-02-20T15:03:37.350Z,102006.53
2019-02-20T15:06:05.502Z,101996.91
2019-02-20T15:08:32.982Z,102008.87
2019-02-20T15:11:04.039Z,102008.87
2019-02-20T15:13:33.271Z,102004.02
2019-02-20T15:16:01.657Z,102003.92
2019-02-20T15:18:30.925Z,102003.92
2019-02-20T15:20:57.999Z,102005.12
2019-02-20T15:23:25.056Z,102005.12
2019-02-20T15:25:52.204Z,102006.44
2019-02-20T15:28:19.570Z,102014.30
2019-02-20T15:30:46.977Z,102013.55
2019-02-20T15:33:14.209Z,102021.97
2019-02-20T15:35:41.491Z,102021.97
2019-02-20T15:38:08.570Z,102016.26
2019-02-20T15:40:35.674Z,102012.98
2019-02-20T15:43:02.768Z,102022.45
2019-02-20T15:45:30.231Z,102022.45
2019-02-20T15:47:58.292Z,102018.89
2019-02-20T15:50:25.721Z,102027.66
2019-02-20T15:52:52.788Z,102026.07
2019-02-20T15:55:19.892Z,102015.43
2019-02-20T15:57:48.014Z,102022.45
2019-02-20T16:00:18.721Z,102022.72
2019-02-20T16:02:45.796Z,102022.15
2019-02-20T16:05:15.074Z,102017.95
2019-02-20T16:07:42.143Z,102017.95
2019-02-20T16:10:09.679Z,102017.48
2019-02-20T16:12:37.139Z,102017.48
2019-02-20T16:15:05.437Z,102012.34
2019-02-20T16:17:33.098Z,102014.48
2019-02-20T16:20:00.455Z,102014.48
2019-02-20T16:22:28.147Z,102020.47
2019-02-20T16:24:55.530Z,102014.19
2019-02-20T16:27:22.627Z,102013.25
2019-02-20T16:29:50.279Z,102023.91
2019-02-20T16:32:19.203Z,102023.91
2019-02-20T16:34:47.376Z,102030.35
2019-02-20T16:37:14.903Z,102026.98
2019-02-20T16:39:42.075Z,102021.22
2019-02-20T16:42:10.417Z,102026.25
2019-02-20T16:44:38.826Z,102032.81
2019-02-20T16:47:06.277Z,102023.64
2019-02-20T16:49:34.039Z,102023.64
2019-02-20T16:52:01.485Z,102039.16
2019-02-20T16:54:28.716Z,102039.16
2019-02-20T16:56:56.128Z,102033.00
2019-02-20T16:59:24.783Z,102033.00
2019-02-20T17:01:53.122Z,102033.70
2019-02-20T17:04:20.612Z,102037.08
2019-02-20T17:06:48.172Z,102037.08
2019-02-20T17:09:15.527Z,102043.80
2019-02-20T17:11:42.599Z,102043.80
2019-02-20T17:14:10.120Z,102045.30
2019-02-20T17:16:38.092Z,102047.44
2019-02-20T17:19:07.767Z,102051.06
2019-02-20T17:21:35.151Z,102055.53
2019-02-20T17:24:04.583Z,102055.34
2019-02-20T17:26:32.130Z,102047.92
2019-02-20T17:29:01.367Z,102047.92
2019-02-20T17:31:28.987Z,102056.84
2019-02-20T17:33:56.655Z,102059.78
2019-02-20T17:36:23.872Z,102067.12
2019-02-20T17:38:51.270Z,102064.17
2019-02-20T17:41:18.429Z,102062.64
2019-02-20T17:43:46.231Z,102072.78
2019-02-20T17:46:13.621Z,102065.25
2019-02-20T17:48:40.694Z,102070.53
2019-02-20T17:51:08.234Z,102071.70
2019-02-20T17:53:38.043Z,102068.34
2019-02-20T17:56:05.126Z,102060.78
2019-02-20T17:58:32.598Z,102063.49
2019-02-20T18:01:01.695Z,102064.02
2019-02-20T18:03:29.927Z,102070.22
2019-02-20T18:05:57.278Z,102067.75
2019-02-20T18:08:24.382Z,102061.91
2019-02-20T18:10:51.779Z,102065.42
2019-02-20T18:13:19.803Z,102061.88
2019-02-20T18:15:48.450Z,102056.55
2019-02-20T18:18:15.874Z,102058.30
2019-02-20T18:20:43.465Z,102069.19
2019-02-20T18:23:10.780Z,102065.70
2019-02-20T18:25:38.161Z,102062.34
2019-02-20T18:28:06.462Z,102071.64
2019-02-20T18:30:33.798Z,102076.16
2019-02-20T18:33:01.434Z,102075.10
2019-02-20T18:35:28.862Z,102072.80
2019-02-20T18:37:55.957Z,102074.76
2019-02-20T18:40:23.094Z,102073.98
2019-02-20T18:42:52.344Z,102075.19
2019-02-20T18:45:19.453Z,102073.98
2019-02-20T18:47:46.555Z,102075.63
2019-02-20T18:50:13.816Z,102076.59
2019-02-20T18:52:42.271Z,102066.66
2019-02-20T18:55:11.242Z,102068.66
2019-02-20T18:57:38.891Z,102063.45
2019-02-20T19:00:10.037Z,102088.55
2019-02-20T19:02:38.569Z,102063.30
2019-02-20T19:05:06.373Z,102060.31
2019-02-20T19:07:34.753Z,102060.18
2019-02-20T19:10:02.093Z,102067.59
2019-02-20T19:13:04.401Z,102064.77
2019-02-20T19:15:44.187Z,102062.27
2019-02-20T19:19:02.339Z,102072.45
2019-02-20T19:22:12.813Z,102065.51
2019-02-20T19:25:20.388Z,102079.80
2019-02-20T19:28:43.985Z,102073.52
2019-02-20T19:31:38.187Z,102072.28
2019-02-20T19:34:46.659Z,102074.48
2019-02-20T19:38:07.600Z,102070.69
2019-02-20T19:41:03.004Z,102064.54
2019-02-20T19:43:45.046Z,102068.14
2019-02-20T19:46:45.059Z,102059.06
2019-02-20T19:49:39.227Z,102062.30
2019-02-20T19:52:37.862Z,102063.45
2019-02-20T19:55:10.845Z,102060.75
2019-02-20T19:58:02.574Z,102052.25
2019-02-20T20:01:17.958Z,102050.00
2019-02-20T20:04:26.219Z,102057.66
2019-02-20T20:07:12.751Z,102056.55
2019-02-20T20:09:59.436Z,102052.45
2019-02-20T20:13:01.934Z,102052.77
2019-02-20T20:15:41.947Z,102050.67
2019-02-20T20:18:32.388Z,102046.28
2019-02-20T20:21:52.920Z,102046.28
2019-02-20T20:25:14.719Z,102044.59
2019-02-20T20:28:04.088Z,102050.09
2019-02-20T20:31:06.741Z,102045.60
2019-02-20T20:34:22.981Z,102048.89
2019-02-20T20:37:22.055Z,102053.09
2019-02-20T20:40:32.020Z,102050.66
2019-02-20T20:43:51.828Z,102052.45
2019-02-20T20:46:46.636Z,102047.37
2019-02-20T20:50:05.345Z,102054.84
2019-02-20T20:52:58.214Z,102056.83
2019-02-20T20:55:49.446Z,102058.23
2019-02-20T20:58:52.336Z,102044.66
2019-02-20T21:02:17.099Z,102045.33
2019-02-20T21:05:30.585Z,102044.56
2019-02-20T21:08:04.546Z,102039.34
2019-02-20T21:11:24.530Z,102053.45
2019-02-20T21:14:33.562Z,102041.59
2019-02-20T21:17:40.388Z,102051.20
2019-02-20T21:20:45.824Z,102051.31
2019-02-20T21:23:54.589Z,102052.41
2019-02-20T21:26:53.092Z,102051.66
2019-02-20T21:29:51.886Z,102045.86
2019-02-20T21:33:19.002Z,102049.70
2019-02-20T21:36:04.745Z,102042.91
2019-02-20T21:39:25.207Z,102045.52
2019-02-20T21:42:18.314Z,102048.31
2019-02-20T21:45:15.975Z,102046.75
2019-02-20T21:48:21.089Z,102047.94
2019-02-20T21:51:29.511Z,102048.13
2019-02-20T21:54:47.551Z,102052.14
2019-02-20T21:58:21.009Z,102045.36
2019-02-20T22:01:31.825Z,102051.28
2019-02-20T22:04:41.784Z,102052.31
2019-02-20T22:07:52.527Z,102048.34
2019-02-20T22:10:52.976Z,102049.09
2019-02-20T22:14:14.069Z,102045.39
2019-02-20T22:17:26.095Z,102047.24
2019-02-20T22:20:53.755Z,102047.63
2019-02-20T22:24:01.712Z,102049.80
2019-02-20T22:26:50.839Z,102051.69
2019-02-20T22:30:04.843Z,102046.59
2019-02-20T22:33:01.447Z,102044.01
2019-02-20T22:36:02.667Z,102048.53
2019-02-20T22:39:04.007Z,102044.77
2019-02-20T22:42:04.150Z,102048.16
2019-02-20T22:44:55.072Z,102043.44
2019-02-20T22:48:04.747Z,102047.13
2019-02-20T22:51:07.401Z,102046.27
2019-02-20T22:54:06.618Z,102042.92
2019-02-20T22:57:20.354Z,102036.46
2019-02-20T23:00:43.858Z,102038.39
2019-02-20T23:03:21.011Z,102030.29
2019-02-20T23:06:26.227Z,102034.69
2019-02-20T23:09:11.891Z,102030.45
2019-02-20T23:12:04.299Z,102025.47
2019-02-20T23:14:52.020Z,102029.70
2019-02-20T23:17:20.214Z,102031.25
2019-02-20T23:19:47.399Z,102031.37
2019-02-20T23:22:14.532Z,102024.67
2019-02-20T23:24:42.632Z,102033.64
2019-02-20T23:27:11.008Z,102030.27
2019-02-20T23:29:38.090Z,102033.77
2019-02-20T23:32:05.958Z,102034.33
2019-02-20T23:34:33.372Z,102030.89
2019-02-20T23:37:00.730Z,102030.52
2019-02-20T23:39:29.784Z,102041.56
2019-02-20T23:41:57.244Z,102036.44
2019-02-20T23:44:25.023Z,102044.17
2019-02-20T23:46:52.815Z,102040.42
2019-02-20T23:49:20.882Z,102034.84
2019-02-20T23:51:48.238Z,102031.75
2019-02-20T23:54:15.695Z,102035.77
2019-02-20T23:56:43.892Z,102028.95
2019-02-20T23:59:10.977Z,102037.62
